createdAt,value
2017-06-13T00:01:22.545Z,95.90
2017-06-13T00:03:48.829Z,93.50
2017-06-13T00:06:15.829Z,92.60
2017-06-13T00:08:42.098Z,92.60
2017-06-13T00:11:09.145Z,91.90
2017-06-13T00:13:36.151Z,90.50
2017-06-13T00:16:02.417Z,90.50
2017-06-13T00:18:29.722Z,94.40
2017-06-13T00:20:55.977Z,91.70
2017-06-13T00:23:22.309Z,90.40
2017-06-13T00:25:48.609Z,90.70
2017-06-13T00:28:14.881Z,89.90
2017-06-13T00:30:41.166Z,86.90
2017-06-13T00:33:07.482Z,88.40
2017-06-13T00:35:33.757Z,89.90
2017-06-13T00:38:00.029Z,90.00
2017-06-13T00:40:26.335Z,88.00
2017-06-13T00:42:52.590Z,86.40
2017-06-13T00:45:18.876Z,87.00
2017-06-13T00:47:45.178Z,87.20
2017-06-13T00:50:12.461Z,90.10
2017-06-13T00:52:38.717Z,90.00
2017-06-13T00:55:05.033Z,88.50
2017-06-13T00:57:31.333Z,88.50
2017-06-13T00:59:57.610Z,89.00
2017-06-13T01:02:23.913Z,90.10
2017-06-13T01:04:50.168Z,90.80
2017-06-13T01:07:16.425Z,90.90
2017-06-13T01:09:42.717Z,90.30
2017-06-13T01:12:09.726Z,90.60
2017-06-13T01:14:35.987Z,90.60
2017-06-13T01:17:03.036Z,90.80
2017-06-13T01:19:29.339Z,90.70
2017-06-13T01:21:55.605Z,91.70
2017-06-13T01:24:21.917Z,89.50
2017-06-13T01:26:49.928Z,89.90
2017-06-13T01:29:16.189Z,89.80
2017-06-13T01:31:42.512Z,92.10
2017-06-13T01:34:08.800Z,91.90
2017-06-13T01:36:35.070Z,91.10
2017-06-13T01:39:01.406Z,91.50
2017-06-13T01:41:27.689Z,92.40
2017-06-13T01:43:53.977Z,89.70
2017-06-13T01:46:20.293Z,92.50
2017-06-13T01:48:46.573Z,91.40
2017-06-13T01:51:12.849Z,91.60
2017-06-13T01:53:39.169Z,91.40
2017-06-13T01:56:05.457Z,90.00
2017-06-13T01:58:31.731Z,90.80
2017-06-13T02:00:58.036Z,91.00
2017-06-13T02:03:24.313Z,90.60
2017-06-13T02:05:50.577Z,90.80
2017-06-13T02:08:16.901Z,91.30
2017-06-13T02:10:43.173Z,92.30
2017-06-13T02:13:09.436Z,93.00
2017-06-13T02:15:36.489Z,93.70
2017-06-13T02:18:03.485Z,96.60
2017-06-13T02:20:29.817Z,96.50
2017-06-13T02:22:56.120Z,95.80
2017-06-13T02:25:22.397Z,96.00
2017-06-13T02:27:48.658Z,98.20
2017-06-13T02:30:15.698Z,99.00
2017-06-13T02:32:42.709Z,99.90
2017-06-13T02:35:08.969Z,99.90
2017-06-13T02:37:37.037Z,99.90
2017-06-13T02:40:04.305Z,99.90
2017-06-13T02:42:30.572Z,99.90
2017-06-13T02:44:56.869Z,99.90
2017-06-13T02:47:23.138Z,99.90
2017-06-13T02:49:49.401Z,99.90
2017-06-13T02:52:15.709Z,99.90
2017-06-13T02:54:43.141Z,99.90
2017-06-13T02:57:09.412Z,99.90
2017-06-13T02:59:35.673Z,99.90
2017-06-13T03:02:01.975Z,99.90
2017-06-13T03:04:28.256Z,99.60
2017-06-13T03:06:54.512Z,99.90
2017-06-13T03:09:24.618Z,99.90
2017-06-13T03:11:50.873Z,99.90
2017-06-13T03:14:17.127Z,99.90
2017-06-13T03:16:43.445Z,99.90
2017-06-13T03:19:11.457Z,99.90
2017-06-13T03:21:37.719Z,99.90
2017-06-13T03:24:04.017Z,99.90
2017-06-13T03:26:30.282Z,99.90
2017-06-13T03:28:56.542Z,99.90
2017-06-13T03:31:22.840Z,99.90
2017-06-13T03:33:49.120Z,99.90
2017-06-13T03:36:15.384Z,99.90
2017-06-13T03:38:41.701Z,99.90
2017-06-13T03:41:07.957Z,99.90
2017-06-13T03:43:34.217Z,99.90
2017-06-13T03:46:00.523Z,99.90
2017-06-13T03:48:26.794Z,99.90
2017-06-13T03:50:53.048Z,99.90
2017-06-13T03:53:19.361Z,99.90
2017-06-13T03:55:45.654Z,99.90
2017-06-13T03:58:12.647Z,99.90
2017-06-13T04:00:38.962Z,99.90
2017-06-13T04:03:05.230Z,99.90
2017-06-13T04:05:31.508Z,99.90
2017-06-13T04:07:57.801Z,99.90
2017-06-13T04:10:24.093Z,99.90
2017-06-13T04:12:50.358Z,99.90
2017-06-13T04:15:16.660Z,99.90
2017-06-13T04:17:42.933Z,99.90
2017-06-13T04:20:09.190Z,99.90
2017-06-13T04:22:35.490Z,99.90
2017-06-13T04:25:01.758Z,99.90
2017-06-13T04:27:28.013Z,99.90
2017-06-13T04:29:55.297Z,99.90
2017-06-13T04:32:21.566Z,99.90
2017-06-13T04:34:47.850Z,99.90
2017-06-13T04:37:14.920Z,99.90
2017-06-13T04:39:41.178Z,99.90
2017-06-13T04:42:07.445Z,99.90
2017-06-13T04:44:33.745Z,99.90
2017-06-13T04:47:00.021Z,99.90
2017-06-13T04:49:26.273Z,99.90
2017-06-13T04:51:52.570Z,99.90
2017-06-13T04:54:19.569Z,99.90
2017-06-13T04:56:45.841Z,99.90
2017-06-13T04:59:12.894Z,99.90
2017-06-13T05:01:40.280Z,99.90
2017-06-13T05:04:07.469Z,99.90
2017-06-13T05:06:34.782Z,99.90
2017-06-13T05:09:01.046Z,99.90
2017-06-13T05:11:27.301Z,99.90
2017-06-13T05:13:54.609Z,99.90
2017-06-13T05:16:20.950Z,99.90
2017-06-13T05:18:47.225Z,99.90
2017-06-13T05:21:14.267Z,99.90
2017-06-13T05:23:41.263Z,99.90
2017-06-13T05:26:07.521Z,99.90
2017-06-13T05:28:33.816Z,99.90
2017-06-13T05:31:01.101Z,99.90
2017-06-13T05:33:27.357Z,99.90
2017-06-13T05:35:54.427Z,99.90
2017-06-13T05:38:20.687Z,99.90
2017-06-13T05:40:46.977Z,99.90
2017-06-13T05:43:13.269Z,99.90
2017-06-13T05:45:39.557Z,99.90
2017-06-13T05:48:05.813Z,99.90
2017-06-13T05:50:32.132Z,99.90
2017-06-13T05:52:58.407Z,98.50
2017-06-13T05:55:24.670Z,98.40
2017-06-13T05:57:50.972Z,98.90
2017-06-13T06:00:17.241Z,91.20
2017-06-13T06:02:43.501Z,93.70
2017-06-13T06:05:09.797Z,93.10
2017-06-13T06:07:36.053Z,95.60
2017-06-13T06:10:02.321Z,99.30
2017-06-13T06:12:28.624Z,98.90
2017-06-13T06:14:54.884Z,99.30
2017-06-13T06:17:21.164Z,96.20
2017-06-13T06:19:47.465Z,97.30
2017-06-13T06:22:13.721Z,93.70
2017-06-13T06:24:39.977Z,90.10
2017-06-13T06:27:07.009Z,87.70
2017-06-13T06:29:34.011Z,83.30
2017-06-13T06:32:01.318Z,83.10
2017-06-13T06:34:27.629Z,85.40
2017-06-13T06:36:53.893Z,80.60
2017-06-13T06:39:20.158Z,84.50
2017-06-13T06:41:46.445Z,80.50
2017-06-13T06:44:12.717Z,81.30
2017-06-13T06:46:38.964Z,90.80
2017-06-13T06:49:05.265Z,85.10
2017-06-13T06:51:31.525Z,90.30
2017-06-13T06:53:57.786Z,86.50
2017-06-13T06:56:24.825Z,94.30
2017-06-13T06:58:51.825Z,91.40
2017-06-13T07:01:18.083Z,91.40
2017-06-13T07:03:44.385Z,89.50
2017-06-13T07:06:10.640Z,83.10
2017-06-13T07:08:36.893Z,83.80
2017-06-13T07:11:03.934Z,87.10
2017-06-13T07:13:30.209Z,87.10
2017-06-13T07:15:56.469Z,87.40
2017-06-13T07:18:22.769Z,82.80
2017-06-13T07:20:49.025Z,77.40
2017-06-13T07:23:15.293Z,82.10
2017-06-13T07:25:41.594Z,82.90
2017-06-13T07:28:07.844Z,79.10
2017-06-13T07:30:34.094Z,81.10
2017-06-13T07:33:00.390Z,88.50
2017-06-13T07:35:27.386Z,84.30
2017-06-13T07:37:53.641Z,84.20
2017-06-13T07:40:19.963Z,79.00
2017-06-13T07:42:46.214Z,82.40
2017-06-13T07:45:13.225Z,75.30
2017-06-13T07:47:39.526Z,75.20
2017-06-13T07:50:05.785Z,75.80
2017-06-13T07:52:32.053Z,73.70
2017-06-13T07:54:59.101Z,73.50
2017-06-13T07:57:27.141Z,67.80
2017-06-13T07:59:53.409Z,67.70
2017-06-13T08:02:19.700Z,66.50
2017-06-13T08:04:45.958Z,66.40
2017-06-13T08:07:12.209Z,70.10
2017-06-13T08:09:38.529Z,69.90
2017-06-13T08:12:04.782Z,63.80
2017-06-13T08:14:31.041Z,68.10
2017-06-13T08:16:57.333Z,68.70
2017-06-13T08:19:23.589Z,69.60
2017-06-13T08:21:49.853Z,70.90
2017-06-13T08:24:16.152Z,69.80
2017-06-13T08:26:42.405Z,68.70
2017-06-13T08:29:08.657Z,68.40
2017-06-13T08:31:34.954Z,67.10
2017-06-13T08:34:01.219Z,68.90
2017-06-13T08:36:27.478Z,64.90
2017-06-13T08:38:53.773Z,65.50
2017-06-13T08:41:20.038Z,72.70
2017-06-13T08:43:46.294Z,74.80
2017-06-13T08:46:12.585Z,68.90
2017-06-13T08:48:38.842Z,72.30
2017-06-13T08:51:05.125Z,79.50
2017-06-13T08:53:31.413Z,72.40
2017-06-13T08:55:57.661Z,66.50
2017-06-13T08:58:23.926Z,69.60
2017-06-13T09:00:50.222Z,69.70
2017-06-13T09:03:16.478Z,67.60
2017-06-13T09:05:42.738Z,69.70
2017-06-13T09:08:09.053Z,69.70
2017-06-13T09:10:35.310Z,73.40
2017-06-13T09:13:01.565Z,66.00
2017-06-13T09:15:28.597Z,68.10
2017-06-13T09:17:54.862Z,68.00
2017-06-13T09:20:21.117Z,64.60
2017-06-13T09:22:48.425Z,72.20
2017-06-13T09:25:15.408Z,68.70
2017-06-13T09:27:41.669Z,68.60
2017-06-13T09:30:07.953Z,67.90
2017-06-13T09:32:34.213Z,67.40
2017-06-13T09:35:00.460Z,68.10
2017-06-13T09:37:26.753Z,64.80
2017-06-13T09:39:53.043Z,66.50
2017-06-13T09:42:19.330Z,63.00
2017-06-13T09:44:45.630Z,63.50
2017-06-13T09:47:11.877Z,65.40
2017-06-13T09:49:38.126Z,63.80
2017-06-13T09:52:04.426Z,64.10
2017-06-13T09:54:30.697Z,63.30
2017-06-13T09:56:57.697Z,63.20
2017-06-13T09:59:23.985Z,63.20
2017-06-13T10:01:50.986Z,67.20
2017-06-13T10:04:17.268Z,67.00
2017-06-13T10:06:43.565Z,60.20
2017-06-13T10:09:09.824Z,61.30
2017-06-13T10:11:36.080Z,59.10
2017-06-13T10:14:02.377Z,62.80
2017-06-13T10:16:29.380Z,62.40
2017-06-13T10:18:55.632Z,62.30
2017-06-13T10:21:22.917Z,63.60
2017-06-13T10:23:49.187Z,62.60
2017-06-13T10:26:15.432Z,63.30
2017-06-13T10:28:41.725Z,61.30
2017-06-13T10:31:07.969Z,60.40
2017-06-13T10:33:34.221Z,64.30
2017-06-13T10:36:00.514Z,67.00
2017-06-13T10:38:27.809Z,62.90
2017-06-13T10:40:54.068Z,61.70
2017-06-13T10:43:20.369Z,64.00
2017-06-13T10:45:46.621Z,66.00
2017-06-13T10:48:12.882Z,64.70
2017-06-13T10:50:39.181Z,72.70
2017-06-13T10:53:05.441Z,63.30
2017-06-13T10:55:31.687Z,63.80
2017-06-13T10:57:57.992Z,68.50
2017-06-13T11:00:24.271Z,66.00
2017-06-13T11:02:50.525Z,64.70
2017-06-13T11:05:16.829Z,65.10
2017-06-13T11:07:43.086Z,66.00
2017-06-13T11:10:09.343Z,64.60
2017-06-13T11:12:35.633Z,63.60
2017-06-13T11:15:02.630Z,63.40
2017-06-13T11:17:28.881Z,63.30
2017-06-13T11:19:56.209Z,65.50
2017-06-13T11:22:22.465Z,66.70
2017-06-13T11:24:48.713Z,65.10
2017-06-13T11:27:15.742Z,64.80
2017-06-13T11:29:42.007Z,64.60
2017-06-13T11:32:08.258Z,61.30
2017-06-13T11:34:34.549Z,65.40
2017-06-13T11:37:01.533Z,64.90
2017-06-13T11:39:27.789Z,64.90
2017-06-13T11:41:54.085Z,69.40
2017-06-13T11:44:20.357Z,62.90
2017-06-13T11:46:46.613Z,70.10
2017-06-13T11:49:13.872Z,63.10
2017-06-13T11:51:40.135Z,67.30
2017-06-13T11:54:06.389Z,65.80
2017-06-13T11:56:32.685Z,65.60
2017-06-13T11:58:58.933Z,67.80
2017-06-13T12:01:26.001Z,65.10
2017-06-13T12:03:53.320Z,65.10
2017-06-13T12:06:19.572Z,66.10
2017-06-13T12:08:45.825Z,63.50
2017-06-13T12:11:12.869Z,69.10
2017-06-13T12:13:39.865Z,66.80
2017-06-13T12:16:06.117Z,66.80
2017-06-13T12:18:32.405Z,64.90
2017-06-13T12:20:59.682Z,64.50
2017-06-13T12:23:25.934Z,62.10
2017-06-13T12:25:52.241Z,63.20
2017-06-13T12:28:18.502Z,62.20
2017-06-13T12:30:44.758Z,61.90
2017-06-13T12:33:11.049Z,59.70
2017-06-13T12:35:37.297Z,63.30
2017-06-13T12:38:03.562Z,58.90
2017-06-13T12:40:29.860Z,56.40
2017-06-13T12:42:56.105Z,53.80
2017-06-13T12:45:22.366Z,56.90
2017-06-13T12:47:48.660Z,51.60
2017-06-13T12:50:14.917Z,52.40
2017-06-13T12:52:41.182Z,53.30
2017-06-13T12:55:07.489Z,51.70
2017-06-13T12:57:33.742Z,51.50
2017-06-13T13:00:00.001Z,53.50
2017-06-13T13:02:26.313Z,53.80
2017-06-13T13:04:53.306Z,49.30
2017-06-13T13:07:19.561Z,49.30
2017-06-13T13:09:45.870Z,49.30
2017-06-13T13:12:12.121Z,42.70
2017-06-13T13:14:38.382Z,44.00
2017-06-13T13:17:04.681Z,43.60
2017-06-13T13:19:30.941Z,45.90
2017-06-13T13:21:57.194Z,44.20
2017-06-13T13:24:23.494Z,44.60
2017-06-13T13:26:50.490Z,43.70
2017-06-13T13:29:16.738Z,43.70
2017-06-13T13:31:43.046Z,44.80
2017-06-13T13:34:09.303Z,42.20
2017-06-13T13:36:35.587Z,43.60
2017-06-13T13:39:01.890Z,42.60
2017-06-13T13:41:28.163Z,43.70
2017-06-13T13:43:54.414Z,41.90
2017-06-13T13:46:20.716Z,41.60
2017-06-13T13:48:46.985Z,42.30
2017-06-13T13:51:14.007Z,40.90
2017-06-13T13:53:41.341Z,40.60
2017-06-13T13:56:08.626Z,38.80
2017-06-13T13:58:34.885Z,38.00
2017-06-13T14:01:01.914Z,41.80
2017-06-13T14:03:28.156Z,41.70
2017-06-13T14:05:55.154Z,41.20
2017-06-13T14:08:21.649Z,41.30
2017-06-13T14:10:47.912Z,43.60
2017-06-13T14:13:14.166Z,44.20
2017-06-13T14:15:40.467Z,44.20
2017-06-13T14:18:06.722Z,39.90
2017-06-13T14:20:32.978Z,37.30
2017-06-13T14:22:59.281Z,38.30
2017-06-13T14:25:25.533Z,36.30
2017-06-13T14:27:52.535Z,38.00
2017-06-13T14:30:18.853Z,37.90
2017-06-13T14:32:45.108Z,34.60
2017-06-13T14:35:11.366Z,31.70
2017-06-13T14:37:38.406Z,36.00
2017-06-13T14:40:05.408Z,32.80
2017-06-13T14:42:31.661Z,32.70
2017-06-13T14:44:57.953Z,37.50
2017-06-13T14:47:24.211Z,36.50
2017-06-13T14:49:50.470Z,33.60
2017-06-13T14:52:18.518Z,35.40
2017-06-13T14:54:44.781Z,35.50
2017-06-13T14:57:11.053Z,35.60
2017-06-13T14:59:37.358Z,33.90
2017-06-13T15:02:03.613Z,33.90
2017-06-13T15:04:29.862Z,31.30
2017-06-13T15:06:56.161Z,31.00
2017-06-13T15:09:22.419Z,32.20
2017-06-13T15:11:48.680Z,30.00
2017-06-13T15:14:15.715Z,29.80
2017-06-13T15:16:41.967Z,29.70
2017-06-13T15:19:08.229Z,29.50
2017-06-13T15:21:34.535Z,28.30
2017-06-13T15:24:00.789Z,30.30
2017-06-13T15:26:27.037Z,30.00
2017-06-13T15:28:53.330Z,30.50
2017-06-13T15:31:19.585Z,30.40
2017-06-13T15:33:45.850Z,31.00
2017-06-13T15:36:13.173Z,29.70
2017-06-13T15:38:39.429Z,29.60
2017-06-13T15:41:06.425Z,28.30
2017-06-13T15:43:33.725Z,28.20
2017-06-13T15:46:00.721Z,29.40
2017-06-13T15:48:26.985Z,29.30
2017-06-13T15:50:53.289Z,28.70
2017-06-13T15:53:19.546Z,30.40
2017-06-13T15:55:46.554Z,29.60
2017-06-13T15:58:12.849Z,29.60
2017-06-13T16:00:39.109Z,30.00
2017-06-13T16:03:05.369Z,29.50
2017-06-13T16:05:31.677Z,28.70
2017-06-13T16:07:57.944Z,30.00
2017-06-13T16:10:25.225Z,29.20
2017-06-13T16:12:51.550Z,30.40
2017-06-13T16:15:17.813Z,30.20
2017-06-13T16:17:44.077Z,32.60
2017-06-13T16:20:11.109Z,34.20
2017-06-13T16:22:37.378Z,34.10
2017-06-13T16:25:03.637Z,35.90
2017-06-13T16:27:29.973Z,34.20
2017-06-13T16:29:56.231Z,35.10
2017-06-13T16:32:22.490Z,33.80
2017-06-13T16:34:48.801Z,33.20
2017-06-13T16:37:15.815Z,33.20
2017-06-13T16:39:42.069Z,33.20
2017-06-13T16:42:09.117Z,30.80
2017-06-13T16:44:35.377Z,30.50
2017-06-13T16:47:01.653Z,29.80
2017-06-13T16:49:27.945Z,29.70
2017-06-13T16:51:54.217Z,29.80
2017-06-13T16:54:20.497Z,30.00
2017-06-13T16:56:46.792Z,30.00
2017-06-13T16:59:13.819Z,31.30
2017-06-13T17:01:40.110Z,31.30
2017-06-13T17:04:06.414Z,31.50
2017-06-13T17:06:32.682Z,32.60
2017-06-13T17:08:58.973Z,34.50
2017-06-13T17:11:25.294Z,37.20
2017-06-13T17:13:51.620Z,39.80
2017-06-13T17:16:18.631Z,43.10
2017-06-13T17:18:45.960Z,42.90
2017-06-13T17:21:12.421Z,43.50
2017-06-13T17:23:38.689Z,45.30
2017-06-13T17:26:06.185Z,45.60
2017-06-13T17:28:32.440Z,45.80
2017-06-13T17:30:58.705Z,45.50
2017-06-13T17:33:25.728Z,45.90
2017-06-13T17:35:52.021Z,45.80
2017-06-13T17:38:18.287Z,47.10
2017-06-13T17:40:44.576Z,47.50
2017-06-13T17:43:10.850Z,47.50
2017-06-13T17:45:37.844Z,50.30
2017-06-13T17:48:04.142Z,49.80
2017-06-13T17:50:30.433Z,49.30
2017-06-13T17:52:56.684Z,50.00
2017-06-13T17:55:23.717Z,51.70
2017-06-13T17:57:50.000Z,51.60
2017-06-13T18:00:16.270Z,51.50
2017-06-13T18:02:42.569Z,51.50
2017-06-13T18:05:08.832Z,52.30
2017-06-13T18:07:35.089Z,53.20
2017-06-13T18:10:02.143Z,55.40
2017-06-13T18:12:28.485Z,55.30
2017-06-13T18:14:54.737Z,56.50
2017-06-13T18:17:21.290Z,56.80
2017-06-13T18:19:47.550Z,58.20
2017-06-13T18:22:14.542Z,59.70
2017-06-13T18:24:40.842Z,59.50
2017-06-13T18:27:07.093Z,60.00
2017-06-13T18:29:33.377Z,60.70
2017-06-13T18:31:59.684Z,62.50
2017-06-13T18:34:25.958Z,64.30
2017-06-13T18:36:52.246Z,65.10
2017-06-13T18:39:18.571Z,65.30
2017-06-13T18:41:45.624Z,69.30
2017-06-13T18:44:11.897Z,69.20
2017-06-13T18:46:38.181Z,69.60
2017-06-13T18:49:04.442Z,70.60
2017-06-13T18:51:30.700Z,71.50
2017-06-13T18:53:57.005Z,74.10
2017-06-13T18:56:23.269Z,78.20
2017-06-13T18:58:49.529Z,78.50
2017-06-13T19:01:15.857Z,78.10
2017-06-13T19:03:42.117Z,81.20
2017-06-13T19:06:08.378Z,82.30
2017-06-13T19:08:34.713Z,84.00
2017-06-13T19:11:00.984Z,85.90
2017-06-13T19:13:28.030Z,89.80
2017-06-13T19:15:55.069Z,90.30
2017-06-13T19:18:21.352Z,90.20
2017-06-13T19:20:47.617Z,91.70
2017-06-13T19:23:13.916Z,93.40
2017-06-13T19:25:40.170Z,95.50
2017-06-13T19:28:06.468Z,97.50
2017-06-13T19:30:32.773Z,99.10
2017-06-13T19:32:59.046Z,98.90
2017-06-13T19:35:25.318Z,99.90
2017-06-13T19:37:52.390Z,99.90
2017-06-13T19:40:18.661Z,99.90
2017-06-13T19:42:44.922Z,99.90
2017-06-13T19:45:11.975Z,99.90
2017-06-13T19:47:39.089Z,99.90
2017-06-13T19:50:06.109Z,99.90
2017-06-13T19:52:32.570Z,99.90
2017-06-13T19:54:59.726Z,99.90
2017-06-13T19:57:26.745Z,99.90
2017-06-13T19:59:53.045Z,99.90
2017-06-13T20:02:19.309Z,99.90
2017-06-13T20:04:45.605Z,99.90
2017-06-13T20:07:12.292Z,99.90
2017-06-13T20:09:38.613Z,99.90
2017-06-13T20:12:04.902Z,99.90
2017-06-13T20:14:31.406Z,99.90
2017-06-13T20:16:57.670Z,99.90
2017-06-13T20:19:23.934Z,99.90
2017-06-13T20:21:50.275Z,99.90
2017-06-13T20:24:16.580Z,99.90
2017-06-13T20:26:42.878Z,99.90
2017-06-13T20:29:14.106Z,99.90
2017-06-13T20:31:41.122Z,99.90
2017-06-13T20:34:07.425Z,99.90
2017-06-13T20:36:33.730Z,99.90
2017-06-13T20:38:59.999Z,99.90
2017-06-13T20:41:26.269Z,99.90
2017-06-13T20:43:52.585Z,99.90
2017-06-13T20:46:18.845Z,99.90
2017-06-13T20:48:45.113Z,99.90
2017-06-13T20:51:12.453Z,99.90
2017-06-13T20:53:38.717Z,99.90
2017-06-13T20:56:04.974Z,99.90
2017-06-13T20:58:31.293Z,99.90
2017-06-13T21:00:58.309Z,99.90
2017-06-13T21:03:24.586Z,99.90
2017-06-13T21:05:51.875Z,99.90
2017-06-13T21:08:18.134Z,99.90
2017-06-13T21:10:44.411Z,99.90
2017-06-13T21:13:10.712Z,99.90
2017-06-13T21:15:37.713Z,99.90
2017-06-13T21:18:04.033Z,99.90
2017-06-13T21:20:30.346Z,99.90
2017-06-13T21:22:56.614Z,99.90
2017-06-13T21:25:22.877Z,99.90
2017-06-13T21:27:49.170Z,99.90
2017-06-13T21:30:15.437Z,99.90
2017-06-13T21:32:41.700Z,99.90
2017-06-13T21:35:09.037Z,99.90
2017-06-13T21:37:35.293Z,99.90
2017-06-13T21:40:01.559Z,99.90
2017-06-13T21:42:28.633Z,99.90
2017-06-13T21:44:56.110Z,99.90
2017-06-13T21:47:22.381Z,99.90
2017-06-13T21:49:48.705Z,99.90
2017-06-13T21:52:14.968Z,99.90
2017-06-13T21:54:41.226Z,99.90
2017-06-13T21:57:07.531Z,99.90
2017-06-13T21:59:33.797Z,99.90
2017-06-13T22:02:00.068Z,99.90
2017-06-13T22:04:26.374Z,99.90
2017-06-13T22:06:52.677Z,99.90
2017-06-13T22:09:18.980Z,99.90
2017-06-13T22:11:45.318Z,99.90
2017-06-13T22:14:11.593Z,99.90
2017-06-13T22:16:37.862Z,99.90
2017-06-13T22:19:04.171Z,99.90
2017-06-13T22:21:31.178Z,99.90
2017-06-13T22:23:57.440Z,99.90
2017-06-13T22:26:24.756Z,99.90
2017-06-13T22:28:51.037Z,99.90
2017-06-13T22:31:17.305Z,99.90
2017-06-13T22:33:43.610Z,99.90
2017-06-13T22:36:09.908Z,99.90
2017-06-13T22:38:36.169Z,99.90
2017-06-13T22:41:02.470Z,99.90
2017-06-13T22:43:29.480Z,99.90
2017-06-13T22:45:55.747Z,99.90
2017-06-13T22:48:22.054Z,99.90
2017-06-13T22:50:48.325Z,99.90
2017-06-13T22:53:14.592Z,99.90
2017-06-13T22:55:40.914Z,99.90
2017-06-13T22:58:07.189Z,99.90
2017-06-13T23:00:33.469Z,99.90
2017-06-13T23:02:59.777Z,99.90
2017-06-13T23:05:26.039Z,99.90
2017-06-13T23:07:52.305Z,99.90
2017-06-13T23:10:19.349Z,99.90
2017-06-13T23:12:46.354Z,99.90
2017-06-13T23:15:12.617Z,99.90
2017-06-13T23:17:38.949Z,99.90
2017-06-13T23:20:05.222Z,99.90
2017-06-13T23:22:31.485Z,99.90
2017-06-13T23:24:57.803Z,99.90
2017-06-13T23:27:24.081Z,99.90
2017-06-13T23:29:50.354Z,99.90
2017-06-13T23:32:16.670Z,99.90
2017-06-13T23:34:42.941Z,99.90
2017-06-13T23:37:09.209Z,99.90
2017-06-13T23:39:35.527Z,99.90
2017-06-13T23:42:01.791Z,99.90
2017-06-13T23:44:28.057Z,99.90
2017-06-13T23:46:55.363Z,99.90
2017-06-13T23:49:22.456Z,99.90
2017-06-13T23:51:48.786Z,99.90
2017-06-13T23:54:15.093Z,99.90
2017-06-13T23:56:41.371Z,99.90
2017-06-13T23:59:08.381Z,99.90
